sensor_id;sensor_type;location;lat;lon;timestamp;P1;durP1;ratioP1;P2;durP2;ratioP2
61785;SDS011;47692;53.714;11.372;2022-07-29T00:01:42;6.75;;;2.22;;
61785;SDS011;47692;53.714;11.372;2022-07-29T00:04:08;10.38;;;2.88;;
61785;SDS011;47692;53.714;11.372;2022-07-29T00:06:33;6.18;;;2.25;;
61785;SDS011;47692;53.714;11.372;2022-07-29T00:08:58;6.43;;;2.15;;
61785;SDS011;47692;53.714;11.372;2022-07-29T00:11:24;7.70;;;3.25;;
61785;SDS011;47692;53.714;11.372;2022-07-29T00:13:49;5.13;;;2.35;;
61785;SDS011;47692;53.714;11.372;2022-07-29T00:16:14;5.70;;;2.58;;
61785;SDS011;47692;53.714;11.372;2022-07-29T00:18:40;7.38;;;2.40;;
61785;SDS011;47692;53.714;11.372;2022-07-29T00:21:05;4.75;;;2.55;;
61785;SDS011;47692;53.714;11.372;2022-07-29T00:23:31;5.15;;;2.47;;
61785;SDS011;47692;53.714;11.372;2022-07-29T00:25:56;6.68;;;2.25;;
61785;SDS011;47692;53.714;11.372;2022-07-29T00:28:21;6.78;;;2.65;;
61785;SDS011;47692;53.714;11.372;2022-07-29T00:30:46;3.53;;;2.08;;
61785;SDS011;47692;53.714;11.372;2022-07-29T00:33:12;7.18;;;2.55;;
61785;SDS011;47692;53.714;11.372;2022-07-29T00:35:37;5.70;;;2.55;;
61785;SDS011;47692;53.714;11.372;2022-07-29T00:38:08;8.27;;;2.90;;
61785;SDS011;47692;53.714;11.372;2022-07-29T00:40:38;5.72;;;2.63;;
61785;SDS011;47692;53.714;11.372;2022-07-29T00:43:03;4.35;;;2.15;;
61785;SDS011;47692;53.714;11.372;2022-07-29T00:45:29;5.15;;;2.10;;
61785;SDS011;47692;53.714;11.372;2022-07-29T00:47:55;5.43;;;2.50;;
61785;SDS011;47692;53.714;11.372;2022-07-29T00:50:20;5.80;;;2.70;;
61785;SDS011;47692;53.714;11.372;2022-07-29T00:52:46;4.88;;;2.35;;
61785;SDS011;47692;53.714;11.372;2022-07-29T00:55:13;5.28;;;2.30;;
61785;SDS011;47692;53.714;11.372;2022-07-29T00:57:41;6.00;;;2.28;;
61785;SDS011;47692;53.714;11.372;2022-07-29T01:00:09;5.53;;;2.40;;
61785;SDS011;47692;53.714;11.372;2022-07-29T01:02:37;7.85;;;2.35;;
61785;SDS011;47692;53.714;11.372;2022-07-29T01:05:03;5.22;;;2.50;;
61785;SDS011;47692;53.714;11.372;2022-07-29T01:07:30;6.07;;;2.50;;
61785;SDS011;47692;53.714;11.372;2022-07-29T01:09:58;6.97;;;2.22;;
61785;SDS011;47692;53.714;11.372;2022-07-29T01:12:25;4.72;;;2.20;;
61785;SDS011;47692;53.714;11.372;2022-07-29T01:14:52;5.40;;;2.10;;
61785;SDS011;47692;53.714;11.372;2022-07-29T01:19:46;9.13;;;2.63;;
61785;SDS011;47692;53.714;11.372;2022-07-29T01:22:24;3.05;;;2.03;;
61785;SDS011;47692;53.714;11.372;2022-07-29T01:27:51;6.25;;;2.45;;
61785;SDS011;47692;53.714;11.372;2022-07-29T01:30:24;4.60;;;1.85;;
61785;SDS011;47692;53.714;11.372;2022-07-29T01:32:54;9.50;;;2.15;;
61785;SDS011;47692;53.714;11.372;2022-07-29T01:35:24;4.50;;;2.15;;
61785;SDS011;47692;53.714;11.372;2022-07-29T01:38:05;4.85;;;1.90;;
61785;SDS011;47692;53.714;11.372;2022-07-29T01:41:19;4.22;;;1.70;;
61785;SDS011;47692;53.714;11.372;2022-07-29T01:43:27;4.43;;;2.10;;
61785;SDS011;47692;53.714;11.372;2022-07-29T01:46:17;6.88;;;2.47;;
61785;SDS011;47692;53.714;11.372;2022-07-29T01:49:13;6.30;;;2.03;;
61785;SDS011;47692;53.714;11.372;2022-07-29T01:54:08;9.07;;;2.22;;
61785;SDS011;47692;53.714;11.372;2022-07-29T01:56:39;4.47;;;2.15;;
61785;SDS011;47692;53.714;11.372;2022-07-29T01:59:08;3.22;;;1.77;;
61785;SDS011;47692;53.714;11.372;2022-07-29T02:01:35;5.93;;;2.00;;
61785;SDS011;47692;53.714;11.372;2022-07-29T02:04:02;5.55;;;2.08;;
61785;SDS011;47692;53.714;11.372;2022-07-29T02:06:31;4.80;;;1.95;;
61785;SDS011;47692;53.714;11.372;2022-07-29T02:08:58;3.72;;;1.80;;
61785;SDS011;47692;53.714;11.372;2022-07-29T02:11:25;4.63;;;1.80;;
61785;SDS011;47692;53.714;11.372;2022-07-29T02:13:51;3.42;;;1.90;;
61785;SDS011;47692;53.714;11.372;2022-07-29T02:16:20;5.78;;;2.38;;
61785;SDS011;47692;53.714;11.372;2022-07-29T02:18:48;3.97;;;1.88;;
61785;SDS011;47692;53.714;11.372;2022-07-29T02:21:15;5.93;;;2.00;;
61785;SDS011;47692;53.714;11.372;2022-07-29T02:23:46;4.60;;;1.70;;
61785;SDS011;47692;53.714;11.372;2022-07-29T02:26:13;6.03;;;1.77;;
61785;SDS011;47692;53.714;11.372;2022-07-29T02:28:40;7.28;;;2.28;;
61785;SDS011;47692;53.714;11.372;2022-07-29T02:31:06;5.10;;;1.70;;
61785;SDS011;47692;53.714;11.372;2022-07-29T02:33:32;3.35;;;1.88;;
61785;SDS011;47692;53.714;11.372;2022-07-29T02:35:58;5.43;;;2.00;;
61785;SDS011;47692;53.714;11.372;2022-07-29T02:38:24;4.00;;;1.98;;
61785;SDS011;47692;53.714;11.372;2022-07-29T02:41:11;5.93;;;2.25;;
61785;SDS011;47692;53.714;11.372;2022-07-29T02:43:40;6.75;;;1.88;;
61785;SDS011;47692;53.714;11.372;2022-07-29T02:46:12;5.07;;;2.30;;
61785;SDS011;47692;53.714;11.372;2022-07-29T02:48:43;5.03;;;2.30;;
61785;SDS011;47692;53.714;11.372;2022-07-29T02:51:19;5.25;;;1.90;;
61785;SDS011;47692;53.714;11.372;2022-07-29T02:53:53;3.45;;;1.70;;
61785;SDS011;47692;53.714;11.372;2022-07-29T02:56:23;4.40;;;1.80;;
61785;SDS011;47692;53.714;11.372;2022-07-29T02:58:53;3.75;;;1.75;;
61785;SDS011;47692;53.714;11.372;2022-07-29T03:01:22;4.28;;;1.70;;
61785;SDS011;47692;53.714;11.372;2022-07-29T03:03:49;7.03;;;2.17;;
61785;SDS011;47692;53.714;11.372;2022-07-29T03:06:18;6.80;;;2.10;;
61785;SDS011;47692;53.714;11.372;2022-07-29T03:08:45;4.38;;;2.00;;
61785;SDS011;47692;53.714;11.372;2022-07-29T03:11:12;4.50;;;1.88;;
61785;SDS011;47692;53.714;11.372;2022-07-29T03:13:38;5.32;;;2.28;;
61785;SDS011;47692;53.714;11.372;2022-07-29T03:16:04;10.85;;;2.20;;
61785;SDS011;47692;53.714;11.372;2022-07-29T03:18:31;3.88;;;1.95;;
61785;SDS011;47692;53.714;11.372;2022-07-29T03:20:56;4.47;;;1.52;;
61785;SDS011;47692;53.714;11.372;2022-07-29T03:23:22;4.65;;;2.08;;
61785;SDS011;47692;53.714;11.372;2022-07-29T03:25:49;5.53;;;1.85;;
61785;SDS011;47692;53.714;11.372;2022-07-29T03:28:15;6.35;;;2.00;;
61785;SDS011;47692;53.714;11.372;2022-07-29T03:30:40;4.32;;;1.50;;
61785;SDS011;47692;53.714;11.372;2022-07-29T03:33:06;2.95;;;1.90;;
61785;SDS011;47692;53.714;11.372;2022-07-29T03:35:31;7.15;;;1.95;;
61785;SDS011;47692;53.714;11.372;2022-07-29T03:37:57;4.88;;;1.88;;
61785;SDS011;47692;53.714;11.372;2022-07-29T03:41:07;4.57;;;1.73;;
61785;SDS011;47692;53.714;11.372;2022-07-29T03:43:17;3.00;;;1.45;;
61785;SDS011;47692;53.714;11.372;2022-07-29T03:45:45;6.25;;;1.83;;
61785;SDS011;47692;53.714;11.372;2022-07-29T03:48:15;8.77;;;1.95;;
61785;SDS011;47692;53.714;11.372;2022-07-29T03:50:43;4.80;;;1.92;;
61785;SDS011;47692;53.714;11.372;2022-07-29T03:53:09;2.30;;;1.42;;
61785;SDS011;47692;53.714;11.372;2022-07-29T03:55:43;4.70;;;1.70;;
61785;SDS011;47692;53.714;11.372;2022-07-29T03:58:11;4.00;;;1.63;;
61785;SDS011;47692;53.714;11.372;2022-07-29T04:00:38;6.43;;;1.98;;
61785;SDS011;47692;53.714;11.372;2022-07-29T04:03:05;9.70;;;1.73;;
61785;SDS011;47692;53.714;11.372;2022-07-29T04:05:30;3.92;;;1.30;;
61785;SDS011;47692;53.714;11.372;2022-07-29T04:07:56;7.25;;;1.40;;
61785;SDS011;47692;53.714;11.372;2022-07-29T04:10:21;7.90;;;1.98;;
61785;SDS011;47692;53.714;11.372;2022-07-29T04:12:48;4.15;;;1.52;;
61785;SDS011;47692;53.714;11.372;2022-07-29T04:15:14;3.53;;;1.25;;
61785;SDS011;47692;53.714;11.372;2022-07-29T04:17:39;4.53;;;1.55;;
61785;SDS011;47692;53.714;11.372;2022-07-29T04:20:05;4.95;;;2.63;;
61785;SDS011;47692;53.714;11.372;2022-07-29T04:22:31;6.55;;;1.95;;
61785;SDS011;47692;53.714;11.372;2022-07-29T04:24:56;4.88;;;1.65;;
61785;SDS011;47692;53.714;11.372;2022-07-29T04:27:22;4.93;;;1.70;;
61785;SDS011;47692;53.714;11.372;2022-07-29T04:29:47;4.65;;;1.63;;
61785;SDS011;47692;53.714;11.372;2022-07-29T04:32:12;3.13;;;1.45;;
61785;SDS011;47692;53.714;11.372;2022-07-29T04:34:38;5.50;;;1.52;;
61785;SDS011;47692;53.714;11.372;2022-07-29T04:37:03;3.50;;;1.48;;
61785;SDS011;47692;53.714;11.372;2022-07-29T04:39:28;5.20;;;1.65;;
61785;SDS011;47692;53.714;11.372;2022-07-29T04:41:55;3.45;;;1.70;;
61785;SDS011;47692;53.714;11.372;2022-07-29T04:44:20;3.55;;;1.42;;
61785;SDS011;47692;53.714;11.372;2022-07-29T04:46:46;2.70;;;1.30;;
61785;SDS011;47692;53.714;11.372;2022-07-29T04:49:11;3.13;;;1.50;;
61785;SDS011;47692;53.714;11.372;2022-07-29T04:51:36;3.05;;;1.33;;
61785;SDS011;47692;53.714;11.372;2022-07-29T04:54:02;3.83;;;1.50;;
61785;SDS011;47692;53.714;11.372;2022-07-29T04:56:28;3.33;;;1.50;;
61785;SDS011;47692;53.714;11.372;2022-07-29T04:58:53;3.70;;;1.33;;
61785;SDS011;47692;53.714;11.372;2022-07-29T05:01:19;2.47;;;1.50;;
61785;SDS011;47692;53.714;11.372;2022-07-29T05:03:44;5.72;;;1.83;;
61785;SDS011;47692;53.714;11.372;2022-07-29T05:06:10;5.43;;;1.70;;
61785;SDS011;47692;53.714;11.372;2022-07-29T05:08:36;4.38;;;1.42;;
61785;SDS011;47692;53.714;11.372;2022-07-29T05:11:02;8.85;;;1.33;;
61785;SDS011;47692;53.714;11.372;2022-07-29T05:13:28;4.38;;;1.42;;
61785;SDS011;47692;53.714;11.372;2022-07-29T05:15:53;5.32;;;2.20;;
61785;SDS011;47692;53.714;11.372;2022-07-29T05:18:19;3.78;;;1.55;;
61785;SDS011;47692;53.714;11.372;2022-07-29T05:20:44;3.03;;;1.60;;
61785;SDS011;47692;53.714;11.372;2022-07-29T05:23:09;8.25;;;1.92;;
61785;SDS011;47692;53.714;11.372;2022-07-29T05:25:37;3.92;;;1.27;;
61785;SDS011;47692;53.714;11.372;2022-07-29T05:28:03;5.40;;;1.88;;
61785;SDS011;47692;53.714;11.372;2022-07-29T05:33:08;2.72;;;1.52;;
61785;SDS011;47692;53.714;11.372;2022-07-29T05:35:34;7.93;;;1.60;;
61785;SDS011;47692;53.714;11.372;2022-07-29T05:37:59;2.78;;;1.33;;
61785;SDS011;47692;53.714;11.372;2022-07-29T05:40:25;3.00;;;1.48;;
61785;SDS011;47692;53.714;11.372;2022-07-29T05:42:50;7.25;;;1.73;;
61785;SDS011;47692;53.714;11.372;2022-07-29T05:45:15;3.42;;;1.27;;
61785;SDS011;47692;53.714;11.372;2022-07-29T05:47:41;4.10;;;1.58;;
61785;SDS011;47692;53.714;11.372;2022-07-29T05:50:06;3.17;;;1.52;;
61785;SDS011;47692;53.714;11.372;2022-07-29T05:52:32;5.35;;;2.03;;
61785;SDS011;47692;53.714;11.372;2022-07-29T05:54:57;3.97;;;1.33;;
61785;SDS011;47692;53.714;11.372;2022-07-29T05:57:23;3.25;;;1.45;;
61785;SDS011;47692;53.714;11.372;2022-07-29T05:59:50;4.82;;;1.02;;
61785;SDS011;47692;53.714;11.372;2022-07-29T06:02:16;5.65;;;1.30;;
61785;SDS011;47692;53.714;11.372;2022-07-29T06:04:42;5.50;;;1.40;;
61785;SDS011;47692;53.714;11.372;2022-07-29T06:07:07;2.92;;;1.40;;
61785;SDS011;47692;53.714;11.372;2022-07-29T06:09:33;6.43;;;1.55;;
61785;SDS011;47692;53.714;11.372;2022-07-29T06:11:59;3.83;;;1.40;;
61785;SDS011;47692;53.714;11.372;2022-07-29T06:14:25;3.17;;;1.33;;
61785;SDS011;47692;53.714;11.372;2022-07-29T06:16:51;5.32;;;1.52;;
61785;SDS011;47692;53.714;11.372;2022-07-29T06:19:17;5.45;;;1.77;;
61785;SDS011;47692;53.714;11.372;2022-07-29T06:21:43;4.80;;;1.25;;
61785;SDS011;47692;53.714;11.372;2022-07-29T06:24:10;5.15;;;1.23;;
61785;SDS011;47692;53.714;11.372;2022-07-29T06:26:37;3.45;;;1.58;;
61785;SDS011;47692;53.714;11.372;2022-07-29T06:29:02;4.10;;;1.50;;
61785;SDS011;47692;53.714;11.372;2022-07-29T06:31:27;2.42;;;1.45;;
61785;SDS011;47692;53.714;11.372;2022-07-29T06:33:53;2.97;;;1.27;;
61785;SDS011;47692;53.714;11.372;2022-07-29T06:36:18;4.32;;;1.70;;
61785;SDS011;47692;53.714;11.372;2022-07-29T06:38:43;5.55;;;1.60;;
61785;SDS011;47692;53.714;11.372;2022-07-29T06:41:09;4.88;;;1.50;;
61785;SDS011;47692;53.714;11.372;2022-07-29T06:43:40;5.03;;;1.50;;
61785;SDS011;47692;53.714;11.372;2022-07-29T06:46:07;3.42;;;1.67;;
61785;SDS011;47692;53.714;11.372;2022-07-29T06:48:35;4.57;;;1.50;;
61785;SDS011;47692;53.714;11.372;2022-07-29T06:51:02;2.90;;;1.40;;
61785;SDS011;47692;53.714;11.372;2022-07-29T06:53:28;7.35;;;1.95;;
61785;SDS011;47692;53.714;11.372;2022-07-29T06:55:57;5.00;;;1.60;;
61785;SDS011;47692;53.714;11.372;2022-07-29T06:58:24;2.55;;;1.58;;
61785;SDS011;47692;53.714;11.372;2022-07-29T07:00:50;2.78;;;1.40;;
61785;SDS011;47692;53.714;11.372;2022-07-29T07:03:16;3.47;;;1.60;;
61785;SDS011;47692;53.714;11.372;2022-07-29T07:05:42;7.13;;;2.00;;
61785;SDS011;47692;53.714;11.372;2022-07-29T07:08:09;5.15;;;1.67;;
61785;SDS011;47692;53.714;11.372;2022-07-29T07:10:34;4.82;;;1.65;;
61785;SDS011;47692;53.714;11.372;2022-07-29T07:13:00;4.55;;;1.52;;
61785;SDS011;47692;53.714;11.372;2022-07-29T07:15:25;5.72;;;1.75;;
61785;SDS011;47692;53.714;11.372;2022-07-29T07:17:52;3.85;;;1.45;;
61785;SDS011;47692;53.714;11.372;2022-07-29T07:20:17;9.05;;;1.85;;
61785;SDS011;47692;53.714;11.372;2022-07-29T07:22:43;5.30;;;1.60;;
61785;SDS011;47692;53.714;11.372;2022-07-29T07:25:08;6.18;;;1.83;;
61785;SDS011;47692;53.714;11.372;2022-07-29T07:27:34;4.63;;;1.38;;
61785;SDS011;47692;53.714;11.372;2022-07-29T07:30:00;2.17;;;1.23;;
61785;SDS011;47692;53.714;11.372;2022-07-29T07:32:25;7.13;;;1.60;;
61785;SDS011;47692;53.714;11.372;2022-07-29T07:34:51;3.70;;;1.58;;
61785;SDS011;47692;53.714;11.372;2022-07-29T07:37:16;3.10;;;1.33;;
61785;SDS011;47692;53.714;11.372;2022-07-29T07:39:44;4.57;;;1.63;;
61785;SDS011;47692;53.714;11.372;2022-07-29T07:42:09;2.85;;;1.20;;
61785;SDS011;47692;53.714;11.372;2022-07-29T07:44:37;2.63;;;1.30;;
61785;SDS011;47692;53.714;11.372;2022-07-29T07:47:02;8.57;;;1.60;;
61785;SDS011;47692;53.714;11.372;2022-07-29T07:49:28;4.50;;;1.27;;
61785;SDS011;47692;53.714;11.372;2022-07-29T07:51:53;4.60;;;1.30;;
61785;SDS011;47692;53.714;11.372;2022-07-29T07:54:19;4.18;;;1.55;;
61785;SDS011;47692;53.714;11.372;2022-07-29T07:56:44;3.90;;;1.38;;
61785;SDS011;47692;53.714;11.372;2022-07-29T07:59:10;5.95;;;2.15;;
61785;SDS011;47692;53.714;11.372;2022-07-29T08:01:35;4.82;;;1.42;;
61785;SDS011;47692;53.714;11.372;2022-07-29T08:04:01;5.47;;;1.50;;
61785;SDS011;47692;53.714;11.372;2022-07-29T08:06:26;4.10;;;1.42;;
61785;SDS011;47692;53.714;11.372;2022-07-29T08:08:52;2.88;;;1.30;;
61785;SDS011;47692;53.714;11.372;2022-07-29T08:11:17;7.60;;;1.70;;
61785;SDS011;47692;53.714;11.372;2022-07-29T08:13:43;2.53;;;1.27;;
61785;SDS011;47692;53.714;11.372;2022-07-29T08:16:10;3.25;;;1.20;;
61785;SDS011;47692;53.714;11.372;2022-07-29T08:18:37;3.78;;;1.20;;
61785;SDS011;47692;53.714;11.372;2022-07-29T08:21:06;6.13;;;1.30;;
61785;SDS011;47692;53.714;11.372;2022-07-29T08:23:31;2.28;;;1.30;;
61785;SDS011;47692;53.714;11.372;2022-07-29T08:26:10;4.15;;;1.30;;
61785;SDS011;47692;53.714;11.372;2022-07-29T08:28:39;4.22;;;1.45;;
61785;SDS011;47692;53.714;11.372;2022-07-29T08:31:10;3.00;;;1.48;;
61785;SDS011;47692;53.714;11.372;2022-07-29T08:33:37;3.83;;;1.55;;
61785;SDS011;47692;53.714;11.372;2022-07-29T08:36:02;5.18;;;1.40;;
61785;SDS011;47692;53.714;11.372;2022-07-29T08:38:28;2.75;;;1.25;;
61785;SDS011;47692;53.714;11.372;2022-07-29T08:40:55;3.63;;;1.50;;
61785;SDS011;47692;53.714;11.372;2022-07-29T08:43:21;3.40;;;1.70;;
61785;SDS011;47692;53.714;11.372;2022-07-29T08:45:48;4.32;;;1.45;;
61785;SDS011;47692;53.714;11.372;2022-07-29T08:48:16;3.15;;;1.23;;
61785;SDS011;47692;53.714;11.372;2022-07-29T08:50:44;8.15;;;1.98;;
61785;SDS011;47692;53.714;11.372;2022-07-29T08:53:11;5.82;;;1.55;;
61785;SDS011;47692;53.714;11.372;2022-07-29T08:55:42;3.45;;;1.42;;
61785;SDS011;47692;53.714;11.372;2022-07-29T08:58:09;3.47;;;1.53;;
61785;SDS011;47692;53.714;11.372;2022-07-29T09:00:36;3.22;;;1.50;;
61785;SDS011;47692;53.714;11.372;2022-07-29T09:03:06;4.85;;;1.60;;
61785;SDS011;47692;53.714;11.372;2022-07-29T09:05:34;3.13;;;1.33;;
61785;SDS011;47692;53.714;11.372;2022-07-29T09:08:00;3.83;;;1.33;;
61785;SDS011;47692;53.714;11.372;2022-07-29T09:10:26;7.18;;;1.55;;
61785;SDS011;47692;53.714;11.372;2022-07-29T09:12:53;3.55;;;1.40;;
61785;SDS011;47692;53.714;11.372;2022-07-29T09:15:20;3.70;;;1.33;;
61785;SDS011;47692;53.714;11.372;2022-07-29T09:17:47;2.42;;;1.23;;
61785;SDS011;47692;53.714;11.372;2022-07-29T09:20:18;4.72;;;1.65;;
61785;SDS011;47692;53.714;11.372;2022-07-29T09:23:23;3.15;;;1.27;;
61785;SDS011;47692;53.714;11.372;2022-07-29T09:25:48;4.25;;;1.75;;
61785;SDS011;47692;53.714;11.372;2022-07-29T09:28:14;4.75;;;1.60;;
61785;SDS011;47692;53.714;11.372;2022-07-29T09:30:55;3.80;;;1.20;;
61785;SDS011;47692;53.714;11.372;2022-07-29T09:33:23;4.10;;;1.60;;
61785;SDS011;47692;53.714;11.372;2022-07-29T09:35:59;3.50;;;1.70;;
61785;SDS011;47692;53.714;11.372;2022-07-29T09:38:32;3.85;;;1.58;;
61785;SDS011;47692;53.714;11.372;2022-07-29T09:40:59;3.70;;;1.48;;
61785;SDS011;47692;53.714;11.372;2022-07-29T09:43:27;3.65;;;1.75;;
61785;SDS011;47692;53.714;11.372;2022-07-29T09:45:52;3.03;;;1.63;;
61785;SDS011;47692;53.714;11.372;2022-07-29T09:48:19;2.45;;;1.27;;
61785;SDS011;47692;53.714;11.372;2022-07-29T09:50:47;2.35;;;1.52;;
61785;SDS011;47692;53.714;11.372;2022-07-29T09:56:03;4.00;;;1.40;;
61785;SDS011;47692;53.714;11.372;2022-07-29T09:58:30;5.70;;;1.50;;
61785;SDS011;47692;53.714;11.372;2022-07-29T10:00:59;3.78;;;1.40;;
61785;SDS011;47692;53.714;11.372;2022-07-29T10:03:25;3.80;;;1.50;;
61785;SDS011;47692;53.714;11.372;2022-07-29T10:06:07;4.45;;;1.50;;
61785;SDS011;47692;53.714;11.372;2022-07-29T10:08:34;2.88;;;1.30;;
61785;SDS011;47692;53.714;11.372;2022-07-29T10:11:15;6.47;;;1.40;;
61785;SDS011;47692;53.714;11.372;2022-07-29T10:13:43;2.40;;;1.20;;
61785;SDS011;47692;53.714;11.372;2022-07-29T10:16:10;4.95;;;1.40;;
61785;SDS011;47692;53.714;11.372;2022-07-29T10:18:40;6.53;;;1.38;;
61785;SDS011;47692;53.714;11.372;2022-07-29T10:21:08;4.40;;;1.23;;
61785;SDS011;47692;53.714;11.372;2022-07-29T10:23:35;2.65;;;1.35;;
61785;SDS011;47692;53.714;11.372;2022-07-29T10:26:02;5.60;;;1.50;;
61785;SDS011;47692;53.714;11.372;2022-07-29T10:28:30;2.22;;;1.30;;
61785;SDS011;47692;53.714;11.372;2022-07-29T10:31:00;6.28;;;1.30;;
61785;SDS011;47692;53.714;11.372;2022-07-29T10:36:49;3.15;;;1.10;;
61785;SDS011;47692;53.714;11.372;2022-07-29T10:42:12;7.60;;;1.20;;
61785;SDS011;47692;53.714;11.372;2022-07-29T10:44:47;3.38;;;1.10;;
61785;SDS011;47692;53.714;11.372;2022-07-29T10:47:23;5.35;;;1.88;;
61785;SDS011;47692;53.714;11.372;2022-07-29T10:49:56;4.47;;;1.35;;
61785;SDS011;47692;53.714;11.372;2022-07-29T10:58:15;4.22;;;1.27;;
61785;SDS011;47692;53.714;11.372;2022-07-29T11:00:42;5.13;;;1.50;;
61785;SDS011;47692;53.714;11.372;2022-07-29T11:03:08;7.68;;;1.42;;
61785;SDS011;47692;53.714;11.372;2022-07-29T11:06:07;5.65;;;1.35;;
61785;SDS011;47692;53.714;11.372;2022-07-29T11:10:53;3.55;;;1.40;;
61785;SDS011;47692;53.714;11.372;2022-07-29T11:13:49;5.40;;;1.50;;
61785;SDS011;47692;53.714;11.372;2022-07-29T11:16:17;4.35;;;1.40;;
61785;SDS011;47692;53.714;11.372;2022-07-29T11:21:37;5.03;;;1.35;;
61785;SDS011;47692;53.714;11.372;2022-07-29T11:24:14;3.75;;;1.20;;
61785;SDS011;47692;53.714;11.372;2022-07-29T11:29:34;4.32;;;1.60;;
61785;SDS011;47692;53.714;11.372;2022-07-29T11:32:10;3.22;;;1.40;;
61785;SDS011;47692;53.714;11.372;2022-07-29T11:34:40;4.03;;;1.23;;
61785;SDS011;47692;53.714;11.372;2022-07-29T11:39:40;4.80;;;1.42;;
61785;SDS011;47692;53.714;11.372;2022-07-29T11:47:36;6.35;;;1.23;;
61785;SDS011;47692;53.714;11.372;2022-07-29T11:50:33;4.50;;;1.60;;
61785;SDS011;47692;53.714;11.372;2022-07-29T11:53:03;3.78;;;1.15;;
61785;SDS011;47692;53.714;11.372;2022-07-29T11:55:37;4.22;;;1.38;;
61785;SDS011;47692;53.714;11.372;2022-07-29T11:58:04;5.13;;;1.50;;
61785;SDS011;47692;53.714;11.372;2022-07-29T12:00:33;4.78;;;1.10;;
61785;SDS011;47692;53.714;11.372;2022-07-29T12:03:08;4.32;;;1.35;;
61785;SDS011;47692;53.714;11.372;2022-07-29T12:05:42;2.60;;;1.13;;
61785;SDS011;47692;53.714;11.372;2022-07-29T12:08:13;3.13;;;1.40;;
61785;SDS011;47692;53.714;11.372;2022-07-29T12:10:43;3.58;;;1.45;;
61785;SDS011;47692;53.714;11.372;2022-07-29T12:13:10;6.10;;;1.30;;
61785;SDS011;47692;53.714;11.372;2022-07-29T12:15:37;5.78;;;1.48;;
61785;SDS011;47692;53.714;11.372;2022-07-29T12:18:16;4.70;;;1.20;;
61785;SDS011;47692;53.714;11.372;2022-07-29T12:20:43;2.95;;;1.20;;
61785;SDS011;47692;53.714;11.372;2022-07-29T12:23:10;2.80;;;1.05;;
61785;SDS011;47692;53.714;11.372;2022-07-29T12:25:40;4.20;;;1.17;;
61785;SDS011;47692;53.714;11.372;2022-07-29T12:28:08;5.70;;;1.27;;
61785;SDS011;47692;53.714;11.372;2022-07-29T12:35:38;3.83;;;1.27;;
61785;SDS011;47692;53.714;11.372;2022-07-29T12:38:03;5.40;;;1.30;;
61785;SDS011;47692;53.714;11.372;2022-07-29T12:40:29;3.42;;;1.20;;
61785;SDS011;47692;53.714;11.372;2022-07-29T12:43:07;1.40;;;1.00;;
61785;SDS011;47692;53.714;11.372;2022-07-29T12:45:34;1.88;;;1.10;;
61785;SDS011;47692;53.714;11.372;2022-07-29T12:48:10;3.25;;;1.20;;
61785;SDS011;47692;53.714;11.372;2022-07-29T12:50:47;3.90;;;1.13;;
61785;SDS011;47692;53.714;11.372;2022-07-29T12:53:19;3.50;;;1.40;;
61785;SDS011;47692;53.714;11.372;2022-07-29T12:55:46;2.92;;;1.30;;
61785;SDS011;47692;53.714;11.372;2022-07-29T13:01:14;3.08;;;1.40;;
61785;SDS011;47692;53.714;11.372;2022-07-29T13:03:50;2.92;;;1.33;;
61785;SDS011;47692;53.714;11.372;2022-07-29T13:06:41;3.60;;;1.30;;
61785;SDS011;47692;53.714;11.372;2022-07-29T13:09:19;4.45;;;1.10;;
61785;SDS011;47692;53.714;11.372;2022-07-29T13:11:52;2.72;;;1.27;;
61785;SDS011;47692;53.714;11.372;2022-07-29T13:14:31;2.65;;;1.30;;
61785;SDS011;47692;53.714;11.372;2022-07-29T13:19:40;4.97;;;1.52;;
61785;SDS011;47692;53.714;11.372;2022-07-29T13:22:07;2.28;;;1.30;;
61785;SDS011;47692;53.714;11.372;2022-07-29T13:27:11;2.83;;;1.30;;
61785;SDS011;47692;53.714;11.372;2022-07-29T13:29:38;7.32;;;1.50;;
61785;SDS011;47692;53.714;11.372;2022-07-29T13:32:05;2.45;;;1.20;;
61785;SDS011;47692;53.714;11.372;2022-07-29T13:34:32;5.18;;;1.30;;
61785;SDS011;47692;53.714;11.372;2022-07-29T13:36:58;3.40;;;1.30;;
61785;SDS011;47692;53.714;11.372;2022-07-29T13:39:24;7.97;;;1.67;;
61785;SDS011;47692;53.714;11.372;2022-07-29T13:41:49;2.55;;;1.30;;
61785;SDS011;47692;53.714;11.372;2022-07-29T13:44:17;3.25;;;1.42;;
61785;SDS011;47692;53.714;11.372;2022-07-29T13:46:42;3.67;;;1.10;;
61785;SDS011;47692;53.714;11.372;2022-07-29T13:49:08;9.90;;;1.42;;
61785;SDS011;47692;53.714;11.372;2022-07-29T13:51:36;2.83;;;1.27;;
61785;SDS011;47692;53.714;11.372;2022-07-29T13:54:04;2.30;;;1.17;;
61785;SDS011;47692;53.714;11.372;2022-07-29T13:56:29;3.00;;;1.10;;
61785;SDS011;47692;53.714;11.372;2022-07-29T13:58:56;2.55;;;1.30;;
61785;SDS011;47692;53.714;11.372;2022-07-29T14:01:23;1.92;;;1.00;;
61785;SDS011;47692;53.714;11.372;2022-07-29T14:03:49;3.58;;;1.20;;
61785;SDS011;47692;53.714;11.372;2022-07-29T14:06:15;3.75;;;1.20;;
61785;SDS011;47692;53.714;11.372;2022-07-29T14:08:40;3.25;;;1.35;;
61785;SDS011;47692;53.714;11.372;2022-07-29T14:11:05;3.15;;;1.17;;
61785;SDS011;47692;53.714;11.372;2022-07-29T14:13:31;3.00;;;1.00;;
61785;SDS011;47692;53.714;11.372;2022-07-29T14:15:57;3.70;;;1.25;;
61785;SDS011;47692;53.714;11.372;2022-07-29T14:18:23;3.65;;;1.30;;
61785;SDS011;47692;53.714;11.372;2022-07-29T14:20:48;2.80;;;1.20;;
61785;SDS011;47692;53.714;11.372;2022-07-29T14:23:14;6.97;;;1.58;;
61785;SDS011;47692;53.714;11.372;2022-07-29T14:25:39;5.88;;;1.30;;
61785;SDS011;47692;53.714;11.372;2022-07-29T14:28:05;4.65;;;1.63;;
61785;SDS011;47692;53.714;11.372;2022-07-29T14:30:30;2.75;;;1.48;;
61785;SDS011;47692;53.714;11.372;2022-07-29T14:32:55;3.55;;;1.30;;
61785;SDS011;47692;53.714;11.372;2022-07-29T14:35:21;3.47;;;1.40;;
61785;SDS011;47692;53.714;11.372;2022-07-29T14:37:46;6.50;;;1.25;;
61785;SDS011;47692;53.714;11.372;2022-07-29T14:40:12;2.83;;;1.10;;
61785;SDS011;47692;53.714;11.372;2022-07-29T14:42:37;2.28;;;1.30;;
61785;SDS011;47692;53.714;11.372;2022-07-29T14:45:04;3.35;;;1.20;;
61785;SDS011;47692;53.714;11.372;2022-07-29T14:47:33;3.55;;;1.20;;
61785;SDS011;47692;53.714;11.372;2022-07-29T14:49:59;3.53;;;1.10;;
61785;SDS011;47692;53.714;11.372;2022-07-29T14:52:24;5.07;;;1.30;;
61785;SDS011;47692;53.714;11.372;2022-07-29T14:54:50;7.78;;;1.60;;
61785;SDS011;47692;53.714;11.372;2022-07-29T14:57:15;5.70;;;1.55;;
61785;SDS011;47692;53.714;11.372;2022-07-29T14:59:41;4.00;;;1.30;;
61785;SDS011;47692;53.714;11.372;2022-07-29T15:02:07;2.80;;;1.60;;
61785;SDS011;47692;53.714;11.372;2022-07-29T15:04:34;2.97;;;1.40;;
61785;SDS011;47692;53.714;11.372;2022-07-29T15:07:00;3.53;;;1.35;;
61785;SDS011;47692;53.714;11.372;2022-07-29T15:09:25;3.33;;;1.40;;
61785;SDS011;47692;53.714;11.372;2022-07-29T15:11:51;3.13;;;1.67;;
61785;SDS011;47692;53.714;11.372;2022-07-29T15:14:16;5.78;;;1.73;;
61785;SDS011;47692;53.714;11.372;2022-07-29T15:16:42;2.05;;;1.20;;
61785;SDS011;47692;53.714;11.372;2022-07-29T15:19:08;5.97;;;1.42;;
61785;SDS011;47692;53.714;11.372;2022-07-29T15:21:35;3.20;;;1.40;;
61785;SDS011;47692;53.714;11.372;2022-07-29T15:24:00;5.80;;;1.30;;
61785;SDS011;47692;53.714;11.372;2022-07-29T15:26:26;2.63;;;1.20;;
61785;SDS011;47692;53.714;11.372;2022-07-29T15:28:52;3.60;;;1.10;;
61785;SDS011;47692;53.714;11.372;2022-07-29T15:31:17;2.63;;;1.20;;
61785;SDS011;47692;53.714;11.372;2022-07-29T15:33:46;2.97;;;1.38;;